- Siena (Round Rock, TX) - Nearby METAR Reports

Nearby METAR Reports

 

KEDC - Austin Exec, Texas, USA
Distance from station: SSE 10mi, 17km
Updated: Fri, 27-Jan-2023 4:35am CST
Clear
Clear
 Wind from calm
Wind: Calm
Temperature: 36°F , 2°C
Dew Point: 30°F , -1°C
Humidity: 81%
Barometer: 30.33 inHg , 1027.1 hPa
Clouds: Clear
Visibility: 10 miles , 16 km
2023/01/27 10:35 KEDC 271035Z AUTO 00000KT 10SM CLR 02/M01 A3033 RMK AO2
KGTU - Georgetown, Texas, USA
Distance from station: NNW 11mi, 17km
Updated: Fri, 27-Jan-2023 4:56am CST
Clear
Clear
 Wind from SW
Wind: SW 5 mph , 7 km/h
Temperature: 34°F , 1°C
Wind Chill: 29°F , -2°C
Dew Point: 28°F , -2°C
Humidity: 81%
Barometer: 30.34 inHg , 1027.4 hPa
Clouds: Clear
Visibility: 10 miles , 16 km
2023/01/27 10:56 KGTU 271056Z AUTO 22004KT 10SM CLR 01/M02 A3034 RMK AO2 SLP278 T00061022 FZRANO
 
KATT - Austin/Mabry, Texas, USA
Distance from station: SSW 18mi, 30km
Updated: Fri, 27-Jan-2023 4:51am CST
Clear
Clear
 Wind from calm
Wind: Calm
Temperature: 34°F , 1°C
Dew Point: 30°F , -1°C
Humidity: 87%
Barometer: 30.34 inHg , 1027.4 hPa
Clouds: Clear
Visibility: 10 miles , 16 km
2023/01/27 10:51 KATT 271051Z AUTO 00000KT 10SM CLR 01/M01 A3034 RMK AO2 SLP280 T00061011 $
KRYW - Lago Vista, Texas, USA
Distance from station: W 22mi, 35km
Updated: Fri, 27-Jan-2023 4:55am CST
Clear
Clear
 Wind from WSW
Wind: WSW 6 mph , 9 km/h
Temperature: 39°F , 4°C
Wind Chill: 35°F , 2°C
Dew Point: 28°F , -2°C
Humidity: 65%
Barometer: 30.32 inHg , 1026.8 hPa
Clouds: Clear
Visibility: 10 miles , 16 km
2023/01/27 10:55 KRYW 271055Z AUTO 25005KT 10SM CLR 04/M02 A3032 RMK AO2 T00421025
 
KAUS - Austin, Texas, USA
Distance from station: S 25mi, 41km
Updated: Fri, 27-Jan-2023 4:53am CST
Mostly cloudy
Mostly cloudy
 Wind from calm
Wind: Calm
Temperature: 28°F , -2°C
Dew Point: 27°F , -3°C
Humidity: 93%
Barometer: 30.34 inHg , 1027.4 hPa
Clouds: Mostly cloudy
Visibility: 10 miles , 16 km
Cloud details: Partly cloudy 20000 ft
Mostly cloudy 25000 ft
2023/01/27 10:53 KAUS 271053Z 00000KT 10SM SCT200 BKN250 M02/M03 A3034 RMK AO2 SLP280 T10171028
KILE - Killeen Muni, Texas, USA
Distance from station: N 36mi, 58km
Updated: Fri, 27-Jan-2023 4:56am CST
Clear
Clear
 Wind from SW
Wind: SW 5 mph , 7 km/h
Temperature: 36°F , 2°C
Wind Chill: 32°F , 0°C
Dew Point: 27°F , -3°C
Humidity: 70%
Barometer: 30.31 inHg , 1026.4 hPa
Clouds: Clear
Visibility: 10 miles , 16 km
2023/01/27 10:56 KILE 271056Z AUTO 23004KT 10SM CLR 02/M03 A3031 RMK AO2 SLP265 T00221028 FZRANO
 
KGRK - Gray/Ft Hood, Texas, USA
Distance from station: NNW 38mi, 62km
Updated: Fri, 27-Jan-2023 4:55am CST
Clear
Clear
 Wind from SW
Wind: SW 9 mph , 15 km/h
Temperature: 41°F , 5°C
Wind Chill: 35°F , 2°C
Dew Point: 27°F , -3°C
Humidity: 57%
Barometer: 30.29 inHg , 1025.7 hPa
Clouds: Clear
Visibility: 9 miles , 14 km
2023/01/27 10:55 KGRK 271055Z AUTO 22008KT 9SM CLR 05/M03 A3029 RMK AO2 SLP260 T00451033
KBMQ - Burnet, Texas, USA
Distance from station: WNW 39mi, 64km
Updated: Fri, 27-Jan-2023 4:53am CST
Clear
Clear
 Wind from calm
Wind: Calm
Temperature: 30°F , -1°C
Dew Point: 27°F , -3°C
Humidity: 86%
Barometer: 30.32 inHg , 1026.8 hPa
Clouds: Clear
Visibility: 10 miles , 16 km
2023/01/27 10:53 KBMQ 271053Z AUTO 00000KT 10SM CLR M01/M03 A3032 RMK AO2 SLP269 T10061033
 
KHLR - Ft Hood/Killeen, Texas, USA
Distance from station: N 41mi, 66km
Updated: Fri, 27-Jan-2023 4:55am CST
Clear
Clear
 Wind from SW
Wind: SW 6 mph , 9 km/h
Temperature: 39°F , 4°C
Wind Chill: 35°F , 2°C
Dew Point: 28°F , -2°C
Humidity: 65%
Barometer: 30.30 inHg , 1026.1 hPa
Clouds: Clear
Visibility: 10 miles , 16 km
2023/01/27 10:55 KHLR 271055Z AUTO 23005KT 10SM CLR 04/M02 A3030 RMK AO2 SLP262 T00381024
KTPL - Temple/Miller, Texas, USA
Distance from station: NNE 42mi, 68km
Updated: Fri, 27-Jan-2023 4:51am CST
Clear
Clear
 Wind from SE
Wind: SE 5 mph , 7 km/h
Temperature: 34°F , 1°C
Wind Chill: 29°F , -2°C
Dew Point: 28°F , -2°C
Humidity: 81%
Barometer: 30.33 inHg , 1027.1 hPa
Clouds: Clear
2023/01/27 10:51 KTPL 271051Z AUTO 14004KT CLR 01/M02 A3033 RMK AO2 SLP268 T00061022 PWINO FZRANO RVRNO $
 
KT35 - Cameron, Texas, USA
Distance from station: ENE 45mi, 72km
Updated: Fri, 27-Jan-2023 4:55am CST
Clear
Clear
 Wind from SSW
Wind: SSW 5 mph , 7 km/h
Temperature: 37°F , 3°C
Wind Chill: 33°F , 1°C
Dew Point: 30°F , -1°C
Humidity: 75%
Barometer: 30.33 inHg , 1027.1 hPa
Clouds: Clear
Visibility: 10 miles , 16 km
2023/01/27 10:55 KT35 271055Z AUTO 21004KT 10SM CLR 03/M01 A3033 RMK AO2 T00261007
KDZB - Horseshoe Bay, Texas, USA
Distance from station: W 45mi, 73km
Updated: Fri, 27-Jan-2023 4:55am CST
Clear
Clear
 Wind from S
Wind: S 3 mph , 6 km/h
Temperature: 28°F , -2°C
Dew Point: 28°F , -2°C
Humidity: 100%
Barometer: 30.32 inHg , 1026.8 hPa
Clouds: Clear
Visibility: 10 miles , 16 km
2023/01/27 10:55 KDZB 271055Z AUTO 18003KT 10SM CLR M02/M02 A3032 RMK AO2 T10201022
 
KGYB - Giddings-Lee, Texas, USA
Distance from station: SE 45mi, 73km
Updated: Fri, 27-Jan-2023 4:55am CST
Clear
Clear
 Wind from calm
Wind: Calm
Temperature: 32°F , 0°C
Dew Point: 30°F , -1°C
Humidity: 93%
Barometer: 30.35 inHg , 1027.8 hPa
Clouds: Clear
Visibility: 10 miles , 16 km
2023/01/27 10:55 KGYB 271055Z AUTO 00000KT 10SM CLR 00/M01 A3035 RMK AO2 T00031006
KHYI - San Marcos, Texas, USA
Distance from station: SSW 48mi, 78km
Updated: Fri, 27-Jan-2023 4:56am CST
Clear
Clear
 Wind from NNW
Wind: NNW 6 mph , 9 km/h
Clouds: Clear
Visibility: 10 miles , 16 km
2023/01/27 10:56 KHYI 271056Z AUTO 33005KT 10SM CLR RMK AO2 SLPNO FZRANO $
 
KLZZ - Lampasas, Texas, USA
Distance from station: NW 52mi, 84km
Updated: Fri, 27-Jan-2023 4:35am CST
Clear
Clear
 Wind from W
Wind: W 6 mph , 9 km/h
Temperature: 36°F , 2°C
Wind Chill: 31°F , -1°C
Dew Point: 27°F , -3°C
Humidity: 70%
Barometer: 30.29 inHg , 1025.7 hPa
Clouds: Clear
Visibility: 10 miles , 16 km
2023/01/27 10:35 KLZZ 271035Z AUTO 26005KT 10SM CLR 02/M03 A3029 RMK AO2 T00151032
KRWV - Caldwell, Texas, USA
Distance from station: E 54mi, 87km
Updated: Fri, 27-Jan-2023 4:55am CST
Clear
Clear
 Wind from calm
Wind: Calm
Temperature: 32°F , 0°C
Dew Point: 30°F , -1°C
Humidity: 93%
Barometer: 30.34 inHg , 1027.4 hPa
Clouds: Clear
Visibility: 10 miles , 16 km
2023/01/27 10:55 KRWV 271055Z AUTO 00000KT 10SM CLR 00/M01 A3034 RMK AO2 T00031015
 
K3T5 - La Grange, Texas, USA
Distance from station: SE 59mi, 95km
Updated: Fri, 27-Jan-2023 4:55am CST
Overcast
Overcast
 Wind from calm
Wind: Calm
Temperature: 32°F , 0°C
Dew Point: 32°F , 0°C
Humidity: 100%
Barometer: 30.35 inHg , 1027.8 hPa
Clouds: Overcast
Visibility: 10 miles , 16 km
Cloud details: Mostly cloudy 21000 ft
Overcast 24000 ft
2023/01/27 10:55 K3T5 271055Z AUTO 00000KT 10SM BKN210 OVC240 00/00 A3035 RMK AO2 T00040004 $
KGOP - Gatesville, Texas, USA
Distance from station: N 61mi, 99km
Updated: Fri, 27-Jan-2023 4:55am CST
Clear
Clear
 
Temperature: 30°F , -1°C
Dew Point: 27°F , -3°C
Humidity: 86%
Barometer: 30.32 inHg , 1026.8 hPa
Clouds: Clear
Visibility: 10 miles , 16 km
2023/01/27 10:55 KGOP 271055Z AUTO 10SM CLR M01/M03 A3032 RMK AO2
 
KLHB - Hearne Muni, Texas, USA
Distance from station: ENE 63mi, 101km
Updated: Fri, 27-Jan-2023 4:55am CST
Clear
Clear
 Wind from calm
Wind: Calm
Temperature: 30°F , -1°C
Dew Point: 28°F , -2°C
Humidity: 93%
Barometer: 30.35 inHg , 1027.8 hPa
Clouds: Clear
Visibility: 10 miles , 16 km
2023/01/27 10:55 KLHB 271055Z AUTO 00000KT 10SM CLR M01/M02 A3035 RMK AO2 T10111022
KBAZ - New Braunfels, Texas, USA
Distance from station: SSW 63mi, 102km
Updated: Fri, 27-Jan-2023 4:51am CST
Clear
Clear
 Wind from calm
Wind: Calm
Temperature: 37°F , 3°C
Dew Point: 32°F , 0°C
Humidity: 81%
Barometer: 30.32 inHg , 1026.8 hPa
Clouds: Clear
Visibility: 10 miles , 16 km
2023/01/27 10:51 KBAZ 271051Z 00000KT 10SM CLR 03/00 A3032 RMK AO2 SLP267 T00280000